sensor_id;sensor_type;location;lat;lon;timestamp;P1;durP1;ratioP1;P2;durP2;ratioP2
13311;SDS011;34033;48.672;9.376;2022-12-18T00:00:20;14.47;;;7.63;;
13311;SDS011;34033;48.672;9.376;2022-12-18T00:02:45;13.97;;;7.07;;
13311;SDS011;34033;48.672;9.376;2022-12-18T00:05:11;15.63;;;8.20;;
13311;SDS011;34033;48.672;9.376;2022-12-18T00:07:36;15.40;;;7.57;;
13311;SDS011;34033;48.672;9.376;2022-12-18T00:10:02;11.57;;;6.97;;
13311;SDS011;34033;48.672;9.376;2022-12-18T00:12:28;14.37;;;7.27;;
13311;SDS011;34033;48.672;9.376;2022-12-18T00:14:53;12.87;;;7.13;;
13311;SDS011;34033;48.672;9.376;2022-12-18T00:17:18;14.07;;;7.40;;
13311;SDS011;34033;48.672;9.376;2022-12-18T00:19:44;15.97;;;7.30;;
13311;SDS011;34033;48.672;9.376;2022-12-18T00:22:09;11.63;;;6.20;;
13311;SDS011;34033;48.672;9.376;2022-12-18T00:24:34;15.10;;;7.03;;
13311;SDS011;34033;48.672;9.376;2022-12-18T00:27:00;14.10;;;7.13;;
13311;SDS011;34033;48.672;9.376;2022-12-18T00:29:25;15.17;;;6.53;;
13311;SDS011;34033;48.672;9.376;2022-12-18T00:31:50;10.57;;;6.37;;
13311;SDS011;34033;48.672;9.376;2022-12-18T00:34:16;13.77;;;6.67;;
13311;SDS011;34033;48.672;9.376;2022-12-18T00:36:41;13.27;;;7.13;;
13311;SDS011;34033;48.672;9.376;2022-12-18T00:39:07;13.80;;;7.07;;
13311;SDS011;34033;48.672;9.376;2022-12-18T00:41:32;12.20;;;6.60;;
13311;SDS011;34033;48.672;9.376;2022-12-18T00:44:17;13.50;;;7.23;;
13311;SDS011;34033;48.672;9.376;2022-12-18T00:46:43;17.03;;;7.60;;
13311;SDS011;34033;48.672;9.376;2022-12-18T00:49:09;11.90;;;6.80;;
13311;SDS011;34033;48.672;9.376;2022-12-18T00:51:35;14.87;;;7.17;;
13311;SDS011;34033;48.672;9.376;2022-12-18T00:54:00;10.83;;;6.67;;
13311;SDS011;34033;48.672;9.376;2022-12-18T00:56:25;9.37;;;5.97;;
13311;SDS011;34033;48.672;9.376;2022-12-18T00:58:51;13.70;;;7.30;;
13311;SDS011;34033;48.672;9.376;2022-12-18T01:01:16;13.30;;;6.33;;
13311;SDS011;34033;48.672;9.376;2022-12-18T01:03:42;12.40;;;5.97;;
13311;SDS011;34033;48.672;9.376;2022-12-18T01:06:10;16.90;;;7.63;;
13311;SDS011;34033;48.672;9.376;2022-12-18T01:08:36;13.70;;;6.63;;
13311;SDS011;34033;48.672;9.376;2022-12-18T01:11:07;16.00;;;7.53;;
13311;SDS011;34033;48.672;9.376;2022-12-18T01:13:34;16.63;;;7.77;;
13311;SDS011;34033;48.672;9.376;2022-12-18T01:15:59;15.67;;;7.07;;
13311;SDS011;34033;48.672;9.376;2022-12-18T01:18:24;15.57;;;6.60;;
13311;SDS011;34033;48.672;9.376;2022-12-18T01:20:50;15.80;;;6.33;;
13311;SDS011;34033;48.672;9.376;2022-12-18T01:23:15;14.83;;;7.20;;
13311;SDS011;34033;48.672;9.376;2022-12-18T01:25:40;13.17;;;6.37;;
13311;SDS011;34033;48.672;9.376;2022-12-18T01:28:06;12.50;;;6.73;;
13311;SDS011;34033;48.672;9.376;2022-12-18T01:30:31;11.73;;;6.23;;
13311;SDS011;34033;48.672;9.376;2022-12-18T01:32:57;11.43;;;6.27;;
13311;SDS011;34033;48.672;9.376;2022-12-18T01:35:22;11.77;;;6.30;;
13311;SDS011;34033;48.672;9.376;2022-12-18T01:37:47;13.53;;;6.70;;
13311;SDS011;34033;48.672;9.376;2022-12-18T01:40:13;10.73;;;6.23;;
13311;SDS011;34033;48.672;9.376;2022-12-18T01:42:38;11.50;;;6.23;;
13311;SDS011;34033;48.672;9.376;2022-12-18T01:50:22;14.77;;;7.00;;
13311;SDS011;34033;48.672;9.376;2022-12-18T01:53:23;16.63;;;7.20;;
13311;SDS011;34033;48.672;9.376;2022-12-18T01:55:47;9.70;;;5.87;;
13311;SDS011;34033;48.672;9.376;2022-12-18T01:58:15;8.90;;;5.70;;
13311;SDS011;34033;48.672;9.376;2022-12-18T02:00:42;12.23;;;6.90;;
13311;SDS011;34033;48.672;9.376;2022-12-18T02:03:07;15.10;;;6.37;;
13311;SDS011;34033;48.672;9.376;2022-12-18T02:05:41;14.30;;;7.07;;
13311;SDS011;34033;48.672;9.376;2022-12-18T02:08:21;14.13;;;6.63;;
13311;SDS011;34033;48.672;9.376;2022-12-18T02:11:05;11.10;;;6.30;;
13311;SDS011;34033;48.672;9.376;2022-12-18T02:13:40;11.60;;;5.80;;
13311;SDS011;34033;48.672;9.376;2022-12-18T02:18:59;14.43;;;7.20;;
13311;SDS011;34033;48.672;9.376;2022-12-18T02:27:01;12.70;;;6.73;;
13311;SDS011;34033;48.672;9.376;2022-12-18T02:31:56;11.43;;;5.87;;
13311;SDS011;34033;48.672;9.376;2022-12-18T02:34:25;13.90;;;6.43;;
13311;SDS011;34033;48.672;9.376;2022-12-18T02:36:54;9.03;;;5.90;;
13311;SDS011;34033;48.672;9.376;2022-12-18T02:39:22;11.00;;;5.63;;
13311;SDS011;34033;48.672;9.376;2022-12-18T02:41:51;10.63;;;6.27;;
13311;SDS011;34033;48.672;9.376;2022-12-18T02:44:17;10.57;;;6.00;;
13311;SDS011;34033;48.672;9.376;2022-12-18T02:46:43;9.23;;;5.60;;
13311;SDS011;34033;48.672;9.376;2022-12-18T03:00:06;8.70;;;4.80;;
13311;SDS011;34033;48.672;9.376;2022-12-18T03:08:00;11.73;;;5.90;;
13311;SDS011;34033;48.672;9.376;2022-12-18T03:10:32;7.23;;;4.73;;
13311;SDS011;34033;48.672;9.376;2022-12-18T03:13:11;9.77;;;5.27;;
13311;SDS011;34033;48.672;9.376;2022-12-18T03:15:42;10.97;;;6.20;;
13311;SDS011;34033;48.672;9.376;2022-12-18T03:18:19;9.93;;;5.70;;
13311;SDS011;34033;48.672;9.376;2022-12-18T03:20:49;9.93;;;5.00;;
13311;SDS011;34033;48.672;9.376;2022-12-18T03:23:18;11.13;;;5.60;;
13311;SDS011;34033;48.672;9.376;2022-12-18T03:25:47;9.93;;;5.63;;
13311;SDS011;34033;48.672;9.376;2022-12-18T03:28:19;10.73;;;5.20;;
13311;SDS011;34033;48.672;9.376;2022-12-18T03:30:46;11.10;;;5.60;;
13311;SDS011;34033;48.672;9.376;2022-12-18T03:33:23;11.63;;;6.60;;
13311;SDS011;34033;48.672;9.376;2022-12-18T03:35:53;11.33;;;6.47;;
13311;SDS011;34033;48.672;9.376;2022-12-18T03:38:19;11.10;;;5.67;;
13311;SDS011;34033;48.672;9.376;2022-12-18T03:40:48;13.03;;;5.57;;
13311;SDS011;34033;48.672;9.376;2022-12-18T03:46:46;10.23;;;5.20;;
13311;SDS011;34033;48.672;9.376;2022-12-18T03:54:26;9.13;;;5.40;;
13311;SDS011;34033;48.672;9.376;2022-12-18T03:56:56;9.13;;;5.17;;
13311;SDS011;34033;48.672;9.376;2022-12-18T03:59:24;9.07;;;6.07;;
13311;SDS011;34033;48.672;9.376;2022-12-18T04:01:52;13.43;;;7.33;;
13311;SDS011;34033;48.672;9.376;2022-12-18T04:04:22;10.90;;;6.53;;
13311;SDS011;34033;48.672;9.376;2022-12-18T04:06:50;13.10;;;5.60;;
13311;SDS011;34033;48.672;9.376;2022-12-18T04:09:17;10.50;;;6.07;;
13311;SDS011;34033;48.672;9.376;2022-12-18T04:11:44;10.00;;;5.83;;
13311;SDS011;34033;48.672;9.376;2022-12-18T04:14:11;9.63;;;5.97;;
13311;SDS011;34033;48.672;9.376;2022-12-18T04:16:36;10.57;;;6.03;;
13311;SDS011;34033;48.672;9.376;2022-12-18T04:19:02;15.97;;;6.43;;
13311;SDS011;34033;48.672;9.376;2022-12-18T04:21:27;11.40;;;5.90;;
13311;SDS011;34033;48.672;9.376;2022-12-18T04:23:53;10.17;;;5.20;;
13311;SDS011;34033;48.672;9.376;2022-12-18T04:26:18;13.50;;;6.00;;
13311;SDS011;34033;48.672;9.376;2022-12-18T04:28:43;12.80;;;6.47;;
13311;SDS011;34033;48.672;9.376;2022-12-18T04:31:09;8.23;;;5.03;;
13311;SDS011;34033;48.672;9.376;2022-12-18T04:33:34;12.83;;;6.20;;
13311;SDS011;34033;48.672;9.376;2022-12-18T04:35:59;13.37;;;6.07;;
13311;SDS011;34033;48.672;9.376;2022-12-18T04:38:25;11.67;;;5.73;;
13311;SDS011;34033;48.672;9.376;2022-12-18T04:40:50;9.90;;;5.20;;
13311;SDS011;34033;48.672;9.376;2022-12-18T04:43:15;10.00;;;5.67;;
13311;SDS011;34033;48.672;9.376;2022-12-18T04:45:41;10.60;;;5.67;;
13311;SDS011;34033;48.672;9.376;2022-12-18T04:48:06;10.20;;;5.97;;
13311;SDS011;34033;48.672;9.376;2022-12-18T04:50:31;11.40;;;5.93;;
13311;SDS011;34033;48.672;9.376;2022-12-18T04:52:57;10.47;;;5.53;;
13311;SDS011;34033;48.672;9.376;2022-12-18T04:55:22;7.33;;;5.07;;
13311;SDS011;34033;48.672;9.376;2022-12-18T04:57:48;11.70;;;6.10;;
13311;SDS011;34033;48.672;9.376;2022-12-18T05:00:13;11.23;;;5.70;;
13311;SDS011;34033;48.672;9.376;2022-12-18T05:02:39;10.60;;;5.73;;
13311;SDS011;34033;48.672;9.376;2022-12-18T05:05:04;9.80;;;6.07;;
13311;SDS011;34033;48.672;9.376;2022-12-18T05:07:31;7.87;;;5.77;;
13311;SDS011;34033;48.672;9.376;2022-12-18T05:09:56;10.33;;;5.83;;
13311;SDS011;34033;48.672;9.376;2022-12-18T05:12:22;9.93;;;5.77;;
13311;SDS011;34033;48.672;9.376;2022-12-18T05:14:47;9.83;;;5.50;;
13311;SDS011;34033;48.672;9.376;2022-12-18T05:17:12;8.23;;;5.50;;
13311;SDS011;34033;48.672;9.376;2022-12-18T05:19:38;9.23;;;5.17;;
13311;SDS011;34033;48.672;9.376;2022-12-18T05:22:03;10.33;;;5.17;;
13311;SDS011;34033;48.672;9.376;2022-12-18T05:24:28;7.43;;;4.90;;
13311;SDS011;34033;48.672;9.376;2022-12-18T05:26:54;8.70;;;5.00;;
13311;SDS011;34033;48.672;9.376;2022-12-18T05:29:19;8.90;;;5.13;;
13311;SDS011;34033;48.672;9.376;2022-12-18T05:31:44;7.10;;;4.67;;
13311;SDS011;34033;48.672;9.376;2022-12-18T05:34:10;11.17;;;5.30;;
13311;SDS011;34033;48.672;9.376;2022-12-18T05:36:35;7.10;;;4.87;;
13311;SDS011;34033;48.672;9.376;2022-12-18T05:39:00;9.33;;;5.57;;
13311;SDS011;34033;48.672;9.376;2022-12-18T05:41:26;8.90;;;5.33;;
13311;SDS011;34033;48.672;9.376;2022-12-18T05:43:52;12.47;;;6.27;;
13311;SDS011;34033;48.672;9.376;2022-12-18T05:46:17;7.83;;;4.80;;
13311;SDS011;34033;48.672;9.376;2022-12-18T05:48:43;9.23;;;5.60;;
13311;SDS011;34033;48.672;9.376;2022-12-18T05:51:13;10.23;;;5.40;;
13311;SDS011;34033;48.672;9.376;2022-12-18T05:53:40;8.90;;;5.03;;
13311;SDS011;34033;48.672;9.376;2022-12-18T05:56:08;9.97;;;5.70;;
13311;SDS011;34033;48.672;9.376;2022-12-18T05:58:35;9.00;;;5.47;;
13311;SDS011;34033;48.672;9.376;2022-12-18T06:03:43;8.13;;;5.43;;
13311;SDS011;34033;48.672;9.376;2022-12-18T06:06:16;9.90;;;6.00;;
13311;SDS011;34033;48.672;9.376;2022-12-18T06:08:43;8.73;;;5.50;;
13311;SDS011;34033;48.672;9.376;2022-12-18T06:11:09;9.53;;;5.07;;
13311;SDS011;34033;48.672;9.376;2022-12-18T06:13:34;8.60;;;5.47;;
13311;SDS011;34033;48.672;9.376;2022-12-18T06:16:06;8.87;;;5.30;;
13311;SDS011;34033;48.672;9.376;2022-12-18T06:18:32;6.63;;;4.53;;
13311;SDS011;34033;48.672;9.376;2022-12-18T06:20:58;7.97;;;5.23;;
13311;SDS011;34033;48.672;9.376;2022-12-18T06:23:24;8.43;;;4.80;;
13311;SDS011;34033;48.672;9.376;2022-12-18T06:25:50;7.23;;;4.37;;
13311;SDS011;34033;48.672;9.376;2022-12-18T06:28:16;10.90;;;4.63;;
13311;SDS011;34033;48.672;9.376;2022-12-18T06:30:44;11.13;;;5.40;;
13311;SDS011;34033;48.672;9.376;2022-12-18T06:33:10;10.80;;;5.47;;
13311;SDS011;34033;48.672;9.376;2022-12-18T06:35:36;12.80;;;5.73;;
13311;SDS011;34033;48.672;9.376;2022-12-18T06:38:02;10.10;;;5.40;;
13311;SDS011;34033;48.672;9.376;2022-12-18T06:40:27;10.33;;;5.67;;
13311;SDS011;34033;48.672;9.376;2022-12-18T06:42:53;12.23;;;5.33;;
13311;SDS011;34033;48.672;9.376;2022-12-18T06:45:18;6.87;;;4.33;;
13311;SDS011;34033;48.672;9.376;2022-12-18T06:47:43;8.90;;;5.03;;
13311;SDS011;34033;48.672;9.376;2022-12-18T06:50:09;7.43;;;4.83;;
13311;SDS011;34033;48.672;9.376;2022-12-18T06:52:34;6.30;;;4.13;;
13311;SDS011;34033;48.672;9.376;2022-12-18T06:55:00;8.33;;;4.87;;
13311;SDS011;34033;48.672;9.376;2022-12-18T06:57:25;8.37;;;5.07;;
13311;SDS011;34033;48.672;9.376;2022-12-18T06:59:51;6.10;;;4.33;;
13311;SDS011;34033;48.672;9.376;2022-12-18T07:02:16;8.67;;;5.13;;
13311;SDS011;34033;48.672;9.376;2022-12-18T07:04:42;7.53;;;4.70;;
13311;SDS011;34033;48.672;9.376;2022-12-18T07:07:07;6.77;;;4.33;;
13311;SDS011;34033;48.672;9.376;2022-12-18T07:09:33;9.57;;;4.93;;
13311;SDS011;34033;48.672;9.376;2022-12-18T07:11:58;7.77;;;4.73;;
13311;SDS011;34033;48.672;9.376;2022-12-18T07:14:23;7.03;;;4.93;;
13311;SDS011;34033;48.672;9.376;2022-12-18T07:16:49;8.97;;;4.80;;
13311;SDS011;34033;48.672;9.376;2022-12-18T07:19:14;8.83;;;5.30;;
13311;SDS011;34033;48.672;9.376;2022-12-18T07:21:39;11.93;;;5.27;;
13311;SDS011;34033;48.672;9.376;2022-12-18T07:24:05;8.77;;;5.17;;
13311;SDS011;34033;48.672;9.376;2022-12-18T07:26:30;7.17;;;5.00;;
13311;SDS011;34033;48.672;9.376;2022-12-18T07:28:56;9.27;;;5.33;;
13311;SDS011;34033;48.672;9.376;2022-12-18T07:31:22;9.67;;;5.17;;
13311;SDS011;34033;48.672;9.376;2022-12-18T07:33:48;10.53;;;5.47;;
13311;SDS011;34033;48.672;9.376;2022-12-18T07:36:14;18.07;;;5.13;;
13311;SDS011;34033;48.672;9.376;2022-12-18T07:38:40;6.93;;;4.30;;
13311;SDS011;34033;48.672;9.376;2022-12-18T07:41:06;10.43;;;5.20;;
13311;SDS011;34033;48.672;9.376;2022-12-18T07:43:32;8.00;;;4.43;;
13311;SDS011;34033;48.672;9.376;2022-12-18T07:45:58;10.73;;;5.50;;
13311;SDS011;34033;48.672;9.376;2022-12-18T07:48:24;9.27;;;4.80;;
13311;SDS011;34033;48.672;9.376;2022-12-18T07:50:49;7.27;;;4.87;;
13311;SDS011;34033;48.672;9.376;2022-12-18T07:53:15;6.73;;;4.53;;
13311;SDS011;34033;48.672;9.376;2022-12-18T07:55:41;7.23;;;5.10;;
13311;SDS011;34033;48.672;9.376;2022-12-18T07:58:06;6.63;;;4.70;;
13311;SDS011;34033;48.672;9.376;2022-12-18T08:00:32;9.30;;;4.67;;
13311;SDS011;34033;48.672;9.376;2022-12-18T08:02:58;8.40;;;5.03;;
13311;SDS011;34033;48.672;9.376;2022-12-18T08:05:23;10.03;;;5.57;;
13311;SDS011;34033;48.672;9.376;2022-12-18T08:07:48;9.53;;;5.70;;
13311;SDS011;34033;48.672;9.376;2022-12-18T08:10:14;12.50;;;5.50;;
13311;SDS011;34033;48.672;9.376;2022-12-18T08:12:40;12.37;;;6.40;;
13311;SDS011;34033;48.672;9.376;2022-12-18T08:15:05;9.37;;;5.17;;
13311;SDS011;34033;48.672;9.376;2022-12-18T08:17:31;9.33;;;5.63;;
13311;SDS011;34033;48.672;9.376;2022-12-18T08:19:56;11.03;;;5.13;;
13311;SDS011;34033;48.672;9.376;2022-12-18T08:22:22;8.63;;;5.10;;
13311;SDS011;34033;48.672;9.376;2022-12-18T08:24:47;7.53;;;4.90;;
13311;SDS011;34033;48.672;9.376;2022-12-18T08:27:12;8.93;;;5.00;;
13311;SDS011;34033;48.672;9.376;2022-12-18T08:29:38;9.90;;;5.50;;
13311;SDS011;34033;48.672;9.376;2022-12-18T08:32:03;10.07;;;5.70;;
13311;SDS011;34033;48.672;9.376;2022-12-18T08:34:29;9.73;;;4.80;;
13311;SDS011;34033;48.672;9.376;2022-12-18T08:36:54;10.53;;;6.10;;
13311;SDS011;34033;48.672;9.376;2022-12-18T08:39:19;12.47;;;6.20;;
13311;SDS011;34033;48.672;9.376;2022-12-18T08:41:45;8.90;;;5.47;;
13311;SDS011;34033;48.672;9.376;2022-12-18T08:44:30;9.30;;;5.27;;
13311;SDS011;34033;48.672;9.376;2022-12-18T08:47:05;9.67;;;5.80;;
13311;SDS011;34033;48.672;9.376;2022-12-18T08:49:31;8.83;;;5.53;;
13311;SDS011;34033;48.672;9.376;2022-12-18T08:51:56;9.30;;;4.87;;
13311;SDS011;34033;48.672;9.376;2022-12-18T08:54:22;16.33;;;6.57;;
13311;SDS011;34033;48.672;9.376;2022-12-18T08:56:49;6.57;;;4.10;;
13311;SDS011;34033;48.672;9.376;2022-12-18T08:59:15;12.20;;;7.87;;
13311;SDS011;34033;48.672;9.376;2022-12-18T09:01:41;17.33;;;8.80;;
13311;SDS011;34033;48.672;9.376;2022-12-18T09:04:07;15.00;;;8.70;;
13311;SDS011;34033;48.672;9.376;2022-12-18T09:06:34;16.10;;;8.87;;
13311;SDS011;34033;48.672;9.376;2022-12-18T09:08:59;13.83;;;8.40;;
13311;SDS011;34033;48.672;9.376;2022-12-18T09:11:25;16.47;;;8.97;;
13311;SDS011;34033;48.672;9.376;2022-12-18T09:13:52;16.40;;;8.63;;
13311;SDS011;34033;48.672;9.376;2022-12-18T09:16:18;23.17;;;9.13;;
13311;SDS011;34033;48.672;9.376;2022-12-18T09:18:44;13.53;;;7.57;;
13311;SDS011;34033;48.672;9.376;2022-12-18T09:21:17;14.23;;;8.13;;
13311;SDS011;34033;48.672;9.376;2022-12-18T09:23:48;12.70;;;7.60;;
13311;SDS011;34033;48.672;9.376;2022-12-18T09:26:14;15.23;;;7.00;;
13311;SDS011;34033;48.672;9.376;2022-12-18T09:28:40;15.50;;;7.57;;
13311;SDS011;34033;48.672;9.376;2022-12-18T09:31:06;14.20;;;7.97;;
13311;SDS011;34033;48.672;9.376;2022-12-18T09:33:33;12.60;;;7.80;;
13311;SDS011;34033;48.672;9.376;2022-12-18T09:36:01;13.07;;;6.97;;
13311;SDS011;34033;48.672;9.376;2022-12-18T09:38:28;12.47;;;7.20;;
13311;SDS011;34033;48.672;9.376;2022-12-18T09:40:53;11.83;;;6.97;;
13311;SDS011;34033;48.672;9.376;2022-12-18T09:43:42;11.57;;;6.93;;
13311;SDS011;34033;48.672;9.376;2022-12-18T09:46:14;14.73;;;7.30;;
13311;SDS011;34033;48.672;9.376;2022-12-18T09:48:46;11.73;;;6.83;;
13311;SDS011;34033;48.672;9.376;2022-12-18T09:51:15;12.07;;;7.10;;
13311;SDS011;34033;48.672;9.376;2022-12-18T09:53:47;14.20;;;7.10;;
13311;SDS011;34033;48.672;9.376;2022-12-18T09:56:18;15.23;;;7.80;;
13311;SDS011;34033;48.672;9.376;2022-12-18T09:59:00;11.23;;;7.03;;
13311;SDS011;34033;48.672;9.376;2022-12-18T10:01:28;13.80;;;7.83;;
13311;SDS011;34033;48.672;9.376;2022-12-18T10:03:54;15.23;;;8.10;;
13311;SDS011;34033;48.672;9.376;2022-12-18T10:06:26;15.53;;;8.13;;
13311;SDS011;34033;48.672;9.376;2022-12-18T10:09:20;17.02;;;10.50;;
13311;SDS011;34033;48.672;9.376;2022-12-18T10:15:07;19.20;;;8.73;;
13311;SDS011;34033;48.672;9.376;2022-12-18T10:20:37;14.77;;;7.90;;
13311;SDS011;34033;48.672;9.376;2022-12-18T10:23:13;17.53;;;7.53;;
13311;SDS011;34033;48.672;9.376;2022-12-18T10:25:54;20.43;;;8.47;;
13311;SDS011;34033;48.672;9.376;2022-12-18T10:28:32;14.77;;;7.97;;
13311;SDS011;34033;48.672;9.376;2022-12-18T10:31:00;15.87;;;8.77;;
13311;SDS011;34033;48.672;9.376;2022-12-18T10:33:28;15.83;;;8.80;;
13311;SDS011;34033;48.672;9.376;2022-12-18T10:35:55;15.13;;;8.43;;
13311;SDS011;34033;48.672;9.376;2022-12-18T10:38:22;13.90;;;8.10;;
13311;SDS011;34033;48.672;9.376;2022-12-18T10:43:47;16.97;;;9.63;;
13311;SDS011;34033;48.672;9.376;2022-12-18T10:46:14;19.37;;;9.67;;
13311;SDS011;34033;48.672;9.376;2022-12-18T10:54:02;17.50;;;8.97;;
13311;SDS011;34033;48.672;9.376;2022-12-18T10:56:30;15.23;;;9.30;;
13311;SDS011;34033;48.672;9.376;2022-12-18T11:01:23;18.10;;;9.40;;
13311;SDS011;34033;48.672;9.376;2022-12-18T11:06:20;20.90;;;10.60;;
13311;SDS011;34033;48.672;9.376;2022-12-18T11:09:05;16.83;;;9.23;;
13311;SDS011;34033;48.672;9.376;2022-12-18T11:11:47;15.37;;;8.90;;
13311;SDS011;34033;48.672;9.376;2022-12-18T11:16:52;19.33;;;9.63;;
13311;SDS011;34033;48.672;9.376;2022-12-18T11:22:53;18.43;;;10.00;;
13311;SDS011;34033;48.672;9.376;2022-12-18T11:24:59;16.23;;;8.97;;
13311;SDS011;34033;48.672;9.376;2022-12-18T11:27:27;21.23;;;9.70;;
13311;SDS011;34033;48.672;9.376;2022-12-18T11:30:06;18.47;;;10.07;;
13311;SDS011;34033;48.672;9.376;2022-12-18T11:32:40;22.93;;;9.70;;
13311;SDS011;34033;48.672;9.376;2022-12-18T11:37:57;18.67;;;8.90;;
13311;SDS011;34033;48.672;9.376;2022-12-18T11:40:31;19.97;;;10.30;;
13311;SDS011;34033;48.672;9.376;2022-12-18T11:43:09;20.70;;;9.30;;
13311;SDS011;34033;48.672;9.376;2022-12-18T11:45:45;17.60;;;9.67;;
13311;SDS011;34033;48.672;9.376;2022-12-18T11:48:18;16.30;;;10.10;;
13311;SDS011;34033;48.672;9.376;2022-12-18T11:50:55;17.70;;;10.10;;
13311;SDS011;34033;48.672;9.376;2022-12-18T11:53:22;12.27;;;8.33;;
13311;SDS011;34033;48.672;9.376;2022-12-18T11:55:51;20.00;;;10.83;;
13311;SDS011;34033;48.672;9.376;2022-12-18T12:09:50;23.73;;;12.47;;
13311;SDS011;34033;48.672;9.376;2022-12-18T12:15:29;23.53;;;12.53;;
13311;SDS011;34033;48.672;9.376;2022-12-18T12:29:05;27.23;;;14.83;;
13311;SDS011;34033;48.672;9.376;2022-12-18T12:40:23;20.67;;;11.70;;
13311;SDS011;34033;48.672;9.376;2022-12-18T12:42:55;25.93;;;12.00;;
13311;SDS011;34033;48.672;9.376;2022-12-18T12:48:17;20.53;;;11.60;;
13311;SDS011;34033;48.672;9.376;2022-12-18T12:50:50;19.03;;;10.80;;
13311;SDS011;34033;48.672;9.376;2022-12-18T12:53:25;19.80;;;10.97;;
13311;SDS011;34033;48.672;9.376;2022-12-18T12:55:54;19.47;;;10.87;;
13311;SDS011;34033;48.672;9.376;2022-12-18T13:04:03;18.10;;;10.60;;
13311;SDS011;34033;48.672;9.376;2022-12-18T13:09:07;19.37;;;11.03;;
13311;SDS011;34033;48.672;9.376;2022-12-18T13:11:45;20.13;;;11.03;;
13311;SDS011;34033;48.672;9.376;2022-12-18T13:14:33;26.10;;;10.93;;
13311;SDS011;34033;48.672;9.376;2022-12-18T13:19:41;18.20;;;10.87;;
13311;SDS011;34033;48.672;9.376;2022-12-18T13:22:20;24.67;;;13.00;;
13311;SDS011;34033;48.672;9.376;2022-12-18T13:24:47;24.27;;;11.77;;
13311;SDS011;34033;48.672;9.376;2022-12-18T13:46:00;29.57;;;13.13;;
13311;SDS011;34033;48.672;9.376;2022-12-18T13:48:32;26.43;;;14.40;;
13311;SDS011;34033;48.672;9.376;2022-12-18T13:53:27;24.00;;;12.67;;
13311;SDS011;34033;48.672;9.376;2022-12-18T13:55:55;26.17;;;13.23;;
13311;SDS011;34033;48.672;9.376;2022-12-18T13:58:21;24.33;;;12.90;;
13311;SDS011;34033;48.672;9.376;2022-12-18T14:00:46;24.83;;;12.83;;
13311;SDS011;34033;48.672;9.376;2022-12-18T14:03:19;24.20;;;12.73;;
13311;SDS011;34033;48.672;9.376;2022-12-18T14:05:44;26.00;;;13.23;;
13311;SDS011;34033;48.672;9.376;2022-12-18T14:08:12;25.90;;;13.10;;
13311;SDS011;34033;48.672;9.376;2022-12-18T14:10:40;20.53;;;11.97;;
13311;SDS011;34033;48.672;9.376;2022-12-18T14:13:08;24.63;;;12.57;;
13311;SDS011;34033;48.672;9.376;2022-12-18T14:15:38;22.23;;;12.00;;
13311;SDS011;34033;48.672;9.376;2022-12-18T14:20:43;24.60;;;11.80;;
13311;SDS011;34033;48.672;9.376;2022-12-18T14:25:54;20.27;;;11.40;;
13311;SDS011;34033;48.672;9.376;2022-12-18T14:28:20;23.20;;;12.47;;
13311;SDS011;34033;48.672;9.376;2022-12-18T14:30:47;23.67;;;12.60;;
13311;SDS011;34033;48.672;9.376;2022-12-18T14:33:14;21.87;;;12.20;;
13311;SDS011;34033;48.672;9.376;2022-12-18T14:38:28;19.97;;;11.50;;
13311;SDS011;34033;48.672;9.376;2022-12-18T14:43:27;21.63;;;11.93;;
13311;SDS011;34033;48.672;9.376;2022-12-18T14:45:53;21.37;;;11.67;;
13311;SDS011;34033;48.672;9.376;2022-12-18T14:50:45;22.50;;;12.27;;
13311;SDS011;34033;48.672;9.376;2022-12-18T14:53:22;21.97;;;11.47;;
13311;SDS011;34033;48.672;9.376;2022-12-18T14:55:56;20.23;;;11.93;;
13311;SDS011;34033;48.672;9.376;2022-12-18T14:58:22;22.30;;;12.40;;
13311;SDS011;34033;48.672;9.376;2022-12-18T15:00:47;24.90;;;12.10;;
13311;SDS011;34033;48.672;9.376;2022-12-18T15:03:14;21.50;;;11.63;;
13311;SDS011;34033;48.672;9.376;2022-12-18T15:05:44;24.07;;;11.87;;
13311;SDS011;34033;48.672;9.376;2022-12-18T15:14:40;17.90;;;10.90;;
13311;SDS011;34033;48.672;9.376;2022-12-18T15:17:17;20.70;;;11.37;;
13311;SDS011;34033;48.672;9.376;2022-12-18T15:19:44;19.43;;;11.77;;
13311;SDS011;34033;48.672;9.376;2022-12-18T15:22:17;18.90;;;10.50;;
13311;SDS011;34033;48.672;9.376;2022-12-18T15:24:43;20.47;;;10.87;;
13311;SDS011;34033;48.672;9.376;2022-12-18T15:30:23;18.63;;;10.73;;
13311;SDS011;34033;48.672;9.376;2022-12-18T15:32:50;21.07;;;10.80;;
13311;SDS011;34033;48.672;9.376;2022-12-18T15:35:18;22.00;;;11.07;;
13311;SDS011;34033;48.672;9.376;2022-12-18T15:37:48;21.00;;;10.93;;
13311;SDS011;34033;48.672;9.376;2022-12-18T15:40:15;26.37;;;12.83;;
13311;SDS011;34033;48.672;9.376;2022-12-18T15:42:46;24.37;;;12.33;;
13311;SDS011;34033;48.672;9.376;2022-12-18T15:45:31;23.90;;;11.67;;
13311;SDS011;34033;48.672;9.376;2022-12-18T15:47:56;22.37;;;12.80;;
13311;SDS011;34033;48.672;9.376;2022-12-18T15:50:22;21.33;;;12.80;;
13311;SDS011;34033;48.672;9.376;2022-12-18T15:52:48;21.30;;;12.13;;
13311;SDS011;34033;48.672;9.376;2022-12-18T15:55:17;22.43;;;12.73;;
13311;SDS011;34033;48.672;9.376;2022-12-18T15:58:07;24.20;;;12.83;;
13311;SDS011;34033;48.672;9.376;2022-12-18T16:00:34;22.10;;;12.30;;
13311;SDS011;34033;48.672;9.376;2022-12-18T16:03:01;20.37;;;11.83;;
13311;SDS011;34033;48.672;9.376;2022-12-18T16:05:26;24.87;;;11.97;;
13311;SDS011;34033;48.672;9.376;2022-12-18T16:07:53;21.53;;;11.80;;
13311;SDS011;34033;48.672;9.376;2022-12-18T16:10:18;22.90;;;11.90;;
13311;SDS011;34033;48.672;9.376;2022-12-18T16:12:44;23.07;;;12.37;;
13311;SDS011;34033;48.672;9.376;2022-12-18T16:15:11;20.83;;;12.63;;
13311;SDS011;34033;48.672;9.376;2022-12-18T16:17:38;19.63;;;11.83;;
13311;SDS011;34033;48.672;9.376;2022-12-18T16:20:05;19.07;;;11.30;;
13311;SDS011;34033;48.672;9.376;2022-12-18T16:22:31;25.40;;;12.60;;
13311;SDS011;34033;48.672;9.376;2022-12-18T16:24:57;26.20;;;13.77;;
13311;SDS011;34033;48.672;9.376;2022-12-18T16:27:23;24.83;;;14.77;;
13311;SDS011;34033;48.672;9.376;2022-12-18T16:29:49;24.13;;;13.20;;
13311;SDS011;34033;48.672;9.376;2022-12-18T16:32:19;31.07;;;14.40;;
13311;SDS011;34033;48.672;9.376;2022-12-18T16:34:46;32.37;;;15.30;;
13311;SDS011;34033;48.672;9.376;2022-12-18T16:37:12;25.90;;;15.20;;
13311;SDS011;34033;48.672;9.376;2022-12-18T16:39:39;26.73;;;13.87;;
13311;SDS011;34033;48.672;9.376;2022-12-18T16:42:08;27.90;;;13.67;;
13311;SDS011;34033;48.672;9.376;2022-12-18T16:44:41;28.17;;;13.63;;
13311;SDS011;34033;48.672;9.376;2022-12-18T16:47:07;23.23;;;13.60;;
13311;SDS011;34033;48.672;9.376;2022-12-18T16:49:33;23.23;;;12.67;;
13311;SDS011;34033;48.672;9.376;2022-12-18T16:51:58;21.90;;;12.50;;
13311;SDS011;34033;48.672;9.376;2022-12-18T16:54:24;25.17;;;13.70;;
13311;SDS011;34033;48.672;9.376;2022-12-18T16:56:50;22.93;;;12.90;;
13311;SDS011;34033;48.672;9.376;2022-12-18T16:59:16;21.03;;;11.77;;
13311;SDS011;34033;48.672;9.376;2022-12-18T17:01:41;21.37;;;11.03;;
13311;SDS011;34033;48.672;9.376;2022-12-18T17:04:07;19.60;;;10.27;;
13311;SDS011;34033;48.672;9.376;2022-12-18T17:06:34;20.50;;;10.47;;
13311;SDS011;34033;48.672;9.376;2022-12-18T17:09:05;23.43;;;12.53;;
13311;SDS011;34033;48.672;9.376;2022-12-18T17:11:32;28.17;;;13.83;;
13311;SDS011;34033;48.672;9.376;2022-12-18T17:13:59;26.90;;;14.00;;
13311;SDS011;34033;48.672;9.376;2022-12-18T17:16:29;26.57;;;14.37;;
13311;SDS011;34033;48.672;9.376;2022-12-18T17:18:55;33.97;;;14.53;;
13311;SDS011;34033;48.672;9.376;2022-12-18T17:21:20;27.63;;;14.57;;